Parsons, KS (67357)

2:25 AM CST on November 18, 2017 (GMT -0600)
1422 Partridge | | Change Station
Active Advisory: Wind Advisory

Elev 906 ft 37.33 °N, 95.26 °W | Updated 32 seconds ago

Partly Cloudy
Partly Cloudy
69.6 °F
Feels Like 69.6 °F
N
8.0
Wind Variable Wind from SSW

Today
High -- | Low -- °F
--% Chance of Precip.
Yesterday
High -- | Low -- °F
Precip. -- in
Pressure 29.36 in
Visibility 10.0 miles
Clouds Clear
Dew Point 63 °F
Humidity 80%
Rainfall 0.00 in
Snow Depth Not available.
7:03 AM 5:08 PM
Waning Crescent, 0% visible
METAR KPPF 180752Z AUTO 20012G19KT 10SM CLR 22/16 A2939 RMK AO2 SLP942 T02170161
Pressure 29.36 in
Visibility 10.0 miles
Clouds Clear
Dew Point 63 °F
Humidity 80%
Rainfall 0.00 in
Snow Depth Not available.
7:03 AM 5:08 PM
Waning Crescent, 0% visible
METAR KPPF 180752Z AUTO 20012G19KT 10SM CLR 22/16 A2939 RMK AO2 SLP942 T02170161

Get Your Daily Forecast Email!

Thanks for signing up!

Be on the lookout for a verification email in your inbox.

You'll start receiving severe weather alerts in your inbox..

×

10-Day Weather Forecast

Almanac

Astronomy

Nov. 18, 2017 Rise Set
Actual Time
Civil Twilight
Nautical Twilight
Astronomical Twilight
Moon
Length of Visible Light
Length of Day
Tomorrow will be .
, % of the Moon is Illuminated

Today's Extremes

State Highs State Lows

Community

WunderPhotos

Category 6

Welcome to Category 6. This is the collective home for Weather Underground's featured writeups by Dr. Jeff Masters (right), Bob Henson (left), Chris Burt, and other regular contributors.

Nearby

Air Quality

  Air Quality AQ Index Pollutant
Not available.

Snow Depth

Station Depth Elevation

Earthquake Activity

City Distance Mag. Time & Date
Minimum magnitude displayed is 2.5.

Coastal Water Temperatures

Place Temperature

Stations

Nearby Weather Stations

Station Location Temp. Windchill Dew Point Humidity Wind Precip. Elev Updated Type
                   

Watches & Warnings

Wind Advisory
Issued: 2:27 PM CST Nov. 17, 2017 – National Weather Service

... Wind Advisory in effect from 6 am to 4 PM CST Saturday...

The National Weather Service in Wichita has issued a Wind
Advisory, which is in effect from 6 am to 4 PM CST Saturday.

* Winds... northwest at 25 to 30 mph with gusts up to 45 mph.

* Timing... of the strongest winds will be from around dawn on
Saturday morning through early afternoon.

* Impacts... include strong and sudden wind gusts and potential
for hazardous travel for high profile vehicles due to cross-
winds on east-west oriented roads and highways.

Precautionary/preparedness actions...

A Wind Advisory means that sustained winds of at least 30 mph
and/or wind gusts over 45 mph are expected. Winds this strong
can make driving difficult, especially for high profile vehicles.
Use extra caution.